createdAt,value
2023-05-17T00:04:54.477Z,2.90
2023-05-17T00:09:57.767Z,3.00
2023-05-17T00:15:00.826Z,2.90
2023-05-17T00:20:05.628Z,2.70
2023-05-17T00:25:08.991Z,2.90
2023-05-17T00:30:12.198Z,2.70
2023-05-17T00:35:15.396Z,3.50
2023-05-17T00:40:18.622Z,3.20
2023-05-17T00:45:21.735Z,2.90
2023-05-17T00:50:24.742Z,3.10
2023-05-17T00:55:28.609Z,2.80
2023-05-17T01:00:33.513Z,3.30
2023-05-17T01:05:36.519Z,3.50
2023-05-17T01:11:02.066Z,3.10
2023-05-17T01:16:18.567Z,3.80
2023-05-17T01:21:42.680Z,3.70
2023-05-17T01:26:49.817Z,3.10
2023-05-17T01:31:53.945Z,2.80
2023-05-17T01:36:58.387Z,3.20
2023-05-17T01:42:14.058Z,3.80
2023-05-17T01:47:24.554Z,4.40
2023-05-17T01:57:35.872Z,4.30
2023-05-17T02:02:38.975Z,4.80
2023-05-17T02:07:42.208Z,4.70
2023-05-17T02:12:45.205Z,2.90
2023-05-17T02:17:48.370Z,3.70
2023-05-17T02:22:51.540Z,3.30
2023-05-17T02:27:54.739Z,3.60
2023-05-17T02:32:57.664Z,3.90
2023-05-17T02:38:01.638Z,4.00
2023-05-17T02:43:04.691Z,4.20
2023-05-17T02:48:07.620Z,3.80
2023-05-17T02:53:10.697Z,3.40
2023-05-17T02:58:13.698Z,3.40
2023-05-17T03:03:16.925Z,3.80
2023-05-17T03:08:20.129Z,3.50
2023-05-17T03:13:23.127Z,3.50
2023-05-17T03:18:26.280Z,2.60
2023-05-17T03:23:29.282Z,3.10
2023-05-17T03:28:32.461Z,3.00
2023-05-17T03:33:35.568Z,3.50
2023-05-17T03:38:38.877Z,3.80
2023-05-17T03:43:42.303Z,2.90
2023-05-17T03:48:45.425Z,3.40
2023-05-17T03:53:48.413Z,3.60
2023-05-17T03:58:52.040Z,3.60
2023-05-17T04:03:55.096Z,3.30
2023-05-17T04:08:59.948Z,3.20
2023-05-17T04:14:03.013Z,2.80
2023-05-17T04:19:06.207Z,3.30
2023-05-17T04:24:09.422Z,3.30
2023-05-17T04:29:12.435Z,2.50
2023-05-17T04:34:15.909Z,2.90
2023-05-17T04:39:21.001Z,3.60
2023-05-17T04:44:24.211Z,2.70
2023-05-17T04:49:27.215Z,2.80
2023-05-17T04:54:30.329Z,2.90
2023-05-17T04:59:33.347Z,3.30
2023-05-17T05:04:36.490Z,3.60
2023-05-17T05:09:39.553Z,3.40
2023-05-17T05:14:42.898Z,4.60
2023-05-17T05:19:46.019Z,4.10
2023-05-17T05:24:49.189Z,3.40
2023-05-17T05:29:52.292Z,3.50
2023-05-17T05:34:55.401Z,2.80
2023-05-17T05:39:58.925Z,3.60
2023-05-17T05:45:05.508Z,2.80
2023-05-17T05:50:09.813Z,3.30
2023-05-17T05:55:13.060Z,5.50
2023-05-17T06:00:18.055Z,6.30
2023-05-17T06:05:21.514Z,4.80
2023-05-17T06:10:24.745Z,3.50
2023-05-17T06:15:28.731Z,4.40
2023-05-17T06:20:32.035Z,4.50
2023-05-17T06:25:35.304Z,6.30
2023-05-17T06:30:38.313Z,5.70
2023-05-17T06:35:54.662Z,5.80
2023-05-17T06:40:59.569Z,5.50
2023-05-17T06:46:02.582Z,5.60
2023-05-17T06:51:05.586Z,6.10
2023-05-17T06:56:08.694Z,5.80
2023-05-17T07:01:12.713Z,5.60
2023-05-17T07:06:15.736Z,5.40
2023-05-17T07:11:18.753Z,5.80
2023-05-17T07:16:21.846Z,5.90
2023-05-17T07:21:24.959Z,5.40
2023-05-17T07:26:28.173Z,5.00
2023-05-17T07:31:31.286Z,5.80
2023-05-17T07:36:34.335Z,5.20
2023-05-17T07:41:37.505Z,5.00
2023-05-17T07:46:40.879Z,4.80
2023-05-17T07:51:44.028Z,4.50
2023-05-17T07:56:47.034Z,4.60
2023-05-17T08:01:50.571Z,4.80
2023-05-17T08:06:53.659Z,4.80
2023-05-17T08:11:56.878Z,4.40
2023-05-17T08:17:00.184Z,3.70
2023-05-17T08:22:03.803Z,3.50
2023-05-17T08:27:06.818Z,2.60
2023-05-17T08:32:09.828Z,2.60
2023-05-17T08:37:13.159Z,3.70
2023-05-17T08:42:21.797Z,3.20
2023-05-17T08:47:30.112Z,2.80
2023-05-17T08:52:33.945Z,2.90
2023-05-17T08:57:39.436Z,2.60
2023-05-17T09:02:43.239Z,2.30
2023-05-17T09:07:48.471Z,2.30
2023-05-17T09:12:52.941Z,2.20
2023-05-17T09:17:57.674Z,2.40
2023-05-17T09:23:07.780Z,2.40
2023-05-17T09:33:17.722Z,2.50
2023-05-17T09:38:26.623Z,2.10
2023-05-17T09:43:30.984Z,2.70
2023-05-17T09:48:38.440Z,2.40
2023-05-17T09:53:42.568Z,2.60
2023-05-17T09:58:45.780Z,3.00
2023-05-17T10:03:51.479Z,3.10
2023-05-17T10:08:57.283Z,3.20
2023-05-17T10:14:23.336Z,3.10
2023-05-17T10:19:27.343Z,3.50
2023-05-17T10:24:32.035Z,3.30
2023-05-17T10:29:36.594Z,3.50
2023-05-17T10:34:40.356Z,3.60
2023-05-17T10:39:47.131Z,3.60
2023-05-17T10:44:50.420Z,3.40
2023-05-17T10:49:53.628Z,3.90
2023-05-17T10:54:59.814Z,4.00
2023-05-17T11:00:06.737Z,3.80
2023-05-17T11:05:24.792Z,3.50
2023-05-17T11:10:28.132Z,4.10
2023-05-17T11:15:33.648Z,4.00
2023-05-17T11:20:37.493Z,3.50
2023-05-17T11:25:41.517Z,3.70
2023-05-17T11:30:51.290Z,3.30
2023-05-17T11:35:55.463Z,4.20
2023-05-17T11:40:58.819Z,4.10
2023-05-17T11:46:02.666Z,3.90
2023-05-17T11:51:06.576Z,4.30
2023-05-17T11:56:11.675Z,4.20
2023-05-17T12:01:14.738Z,4.40
2023-05-17T12:06:18.443Z,4.50
2023-05-17T12:11:22.287Z,4.50
2023-05-17T12:16:26.138Z,4.30
2023-05-17T12:21:29.226Z,4.70
2023-05-17T12:26:32.453Z,4.10
2023-05-17T12:31:46.399Z,4.60
2023-05-17T12:36:50.056Z,4.80
2023-05-17T12:41:54.010Z,5.40
2023-05-17T12:46:58.184Z,4.70
2023-05-17T12:52:05.700Z,5.30
2023-05-17T12:57:15.403Z,5.20
2023-05-17T13:02:20.282Z,4.80
2023-05-17T13:07:24.558Z,4.90
2023-05-17T13:12:27.863Z,5.10
2023-05-17T13:17:40.748Z,4.30
2023-05-17T13:22:47.602Z,4.50
2023-05-17T13:27:50.929Z,4.90
2023-05-17T13:32:54.975Z,4.80
2023-05-17T13:37:58.157Z,4.40
2023-05-17T13:43:01.200Z,4.20
2023-05-17T13:48:04.435Z,3.90
2023-05-17T13:53:07.680Z,3.70
2023-05-17T13:58:10.687Z,4.20
2023-05-17T14:03:13.868Z,4.00
2023-05-17T14:08:17.774Z,3.70
2023-05-17T14:13:20.836Z,4.10
2023-05-17T14:18:24.051Z,3.80
2023-05-17T14:23:27.267Z,3.80
2023-05-17T14:28:30.369Z,3.90
2023-05-17T14:33:33.678Z,3.90
2023-05-17T14:38:37.541Z,4.00
2023-05-17T14:43:40.716Z,4.10
2023-05-17T14:48:43.843Z,3.00
2023-05-17T14:53:46.931Z,4.00
2023-05-17T14:58:50.038Z,3.20
2023-05-17T15:03:53.272Z,3.80
2023-05-17T15:08:56.459Z,5.70
2023-05-17T15:13:59.886Z,2.60
2023-05-17T15:19:03.591Z,3.60
2023-05-17T15:24:07.017Z,2.80
2023-05-17T15:29:10.332Z,2.80
2023-05-17T15:34:13.493Z,3.00
2023-05-17T15:39:16.757Z,3.40
2023-05-17T15:44:19.878Z,3.60
2023-05-17T15:49:22.918Z,3.40
2023-05-17T15:54:26.086Z,2.90
2023-05-17T15:59:29.093Z,2.60
2023-05-17T16:04:35.424Z,3.00
2023-05-17T16:09:38.802Z,2.40
2023-05-17T16:14:41.909Z,3.30
2023-05-17T16:19:45.045Z,2.60
2023-05-17T16:24:52.438Z,3.00
2023-05-17T16:29:55.632Z,3.70
2023-05-17T16:34:59.049Z,2.80
2023-05-17T16:40:02.707Z,2.40
2023-05-17T16:45:07.864Z,2.00
2023-05-17T16:50:13.720Z,2.60
2023-05-17T16:55:16.806Z,2.00
2023-05-17T17:00:21.236Z,2.50
2023-05-17T17:05:25.931Z,2.30
2023-05-17T17:10:29.262Z,2.80
2023-05-17T17:15:32.646Z,3.50
2023-05-17T17:20:36.178Z,3.30
2023-05-17T17:25:39.249Z,2.90
2023-05-17T17:30:42.364Z,2.90
2023-05-17T17:35:45.464Z,2.40
2023-05-17T17:40:49.312Z,2.50
2023-05-17T17:45:52.412Z,2.50
2023-05-17T17:50:56.027Z,3.30
2023-05-17T17:55:59.167Z,3.00
2023-05-17T18:01:02.504Z,2.20
2023-05-17T18:06:06.012Z,3.00
2023-05-17T18:11:09.083Z,3.20
2023-05-17T18:16:12.533Z,2.30
2023-05-17T18:21:16.117Z,2.40
2023-05-17T18:26:19.381Z,2.70
2023-05-17T18:31:22.763Z,2.20
2023-05-17T18:36:26.361Z,2.40
2023-05-17T18:41:29.467Z,2.50
2023-05-17T18:46:32.691Z,2.60
2023-05-17T18:51:35.887Z,3.40
2023-05-17T18:56:39.525Z,2.70
2023-05-17T19:01:44.060Z,3.60
2023-05-17T19:06:49.933Z,3.70
2023-05-17T19:11:53.039Z,4.10
2023-05-17T19:16:57.270Z,3.20
2023-05-17T19:22:01.111Z,3.70
2023-05-17T19:27:05.432Z,3.90
2023-05-17T19:32:09.139Z,3.60
2023-05-17T19:37:12.559Z,3.00
2023-05-17T19:42:16.235Z,3.10
2023-05-17T19:47:19.313Z,3.00
2023-05-17T19:52:22.421Z,2.20
2023-05-17T19:57:26.165Z,2.10
2023-05-17T20:02:29.738Z,2.00
2023-05-17T20:07:33.566Z,2.00
2023-05-17T20:12:36.880Z,2.10
2023-05-17T20:17:40.032Z,2.60
2023-05-17T20:22:43.478Z,1.80
2023-05-17T20:27:46.527Z,2.70
2023-05-17T20:32:49.559Z,2.20
2023-05-17T20:37:52.757Z,1.70
2023-05-17T20:42:55.757Z,1.50
2023-05-17T20:47:58.801Z,2.00
2023-05-17T20:53:01.974Z,1.70
2023-05-17T20:58:04.977Z,2.00
2023-05-17T21:03:09.839Z,2.70
2023-05-17T21:08:13.056Z,2.40
2023-05-17T21:13:16.254Z,2.80
2023-05-17T21:18:19.670Z,2.40
2023-05-17T21:23:22.786Z,2.60
2023-05-17T21:28:25.884Z,2.80
2023-05-17T21:33:29.303Z,2.90
2023-05-17T21:38:32.527Z,2.60
2023-05-17T21:43:35.630Z,2.30
2023-05-17T21:48:38.944Z,2.10
2023-05-17T21:53:42.156Z,2.40
2023-05-17T21:58:45.157Z,1.80
2023-05-17T22:03:51.176Z,2.70
2023-05-17T22:08:55.796Z,2.20
2023-05-17T22:13:59.091Z,2.40
2023-05-17T22:19:02.389Z,2.20
2023-05-17T22:24:06.896Z,2.50
2023-05-17T22:29:09.949Z,1.90
2023-05-17T22:34:12.968Z,2.10
2023-05-17T22:39:16.170Z,2.00
2023-05-17T22:44:20.089Z,2.00
2023-05-17T22:49:26.178Z,2.00
2023-05-17T22:54:29.303Z,2.30
2023-05-17T22:59:33.337Z,2.00
2023-05-17T23:04:38.066Z,2.30
2023-05-17T23:09:41.126Z,2.00
2023-05-17T23:14:44.192Z,2.10
2023-05-17T23:19:47.184Z,2.60
2023-05-17T23:24:50.396Z,2.50
2023-05-17T23:29:55.324Z,2.10
2023-05-17T23:35:03.702Z,1.90
2023-05-17T23:40:09.571Z,2.30
2023-05-17T23:45:12.665Z,2.40
2023-05-17T23:50:15.770Z,2.10
2023-05-17T23:55:20.359Z,2.70
